Terminal Aerodrome Forecast
Issued by NWS

Home | Current Version | Previous Version | Text Only | Print | Product List | Glossary On
Versions: 1 2 3 4 5 6 7 8 9 10 11 12 13 14 15 16 17 18 19 20 21 22 23 24 25 26 27 28 29 30 31 32 33
000
FTUS46 KOTX 021720
TAFPUW
TAF
KPUW 021720Z 0218/0318 24012G18KT P6SM VCSH SCT050 BKN080 OVC100
     FM030100 25009KT P6SM SCT050 BKN100
     FM031000 22004KT P6SM BKN025 BKN050
     FM031600 24006KT P6SM SCT030 BKN060=

USA.gov is the U.S. government's official web portal to all federal, state and local government web resources and services.